Аэропорт
Шэньянский международный аэропорт Таосянь (ZYTX)

 ZYTX / SHE

China
CN-21
Таосянь
 41.63980, 123.48300  / 198 ft

 ZYTX 182330Z 22002MPS 8000 NSC 14/11 Q1014 NOSIG
 TAF ZYTX 181518Z 1818/1918 24003MPS 6000 NSC TX22/1906Z TN10/1821Z

2020 © VATRUS division (Privacy Policy)